Time;durP1;ratioP1;P1;durP2;ratioP2;P2;SDS_P1;SDS_P2;PMS_P1;PMS_P2;Temp;Humidity;BMP_temperature;BMP_pressure;BME280_temperature;BME280_humidity;BME280_pressure;Samples;Min_cycle;Max_cycle;Signal;HPM_P1;HPM_P2
2022/09/14 00:01:33;;;;;;;3.30;0.95;;;15.50;93.70;;;;;;4148807;28;20080;-81
2022/09/14 00:03:34;;;;;;;4.75;1.00;;;15.60;93.90;;;;;;4149027;28;20056;-81
2022/09/14 00:05:35;;;;;;;6.95;1.30;;;15.50;93.90;;;;;;4148558;28;20041;-81
2022/09/14 00:07:36;;;;;;;6.03;1.20;;;15.50;93.90;;;;;;4148798;28;20149;-82
2022/09/14 00:09:36;;;;;;;3.08;0.90;;;15.50;94.10;;;;;;4148828;28;20041;-81
2022/09/14 00:11:37;;;;;;;2.35;1.17;;;15.50;94.20;;;;;;4148803;28;20048;-81
2022/09/14 00:13:41;;;;;;;3.83;1.17;;;15.40;94.20;;;;;;4148699;28;20034;-81
2022/09/14 00:15:45;;;;;;;3.20;1.00;;;15.40;94.40;;;;;;4148100;28;20088;-81
2022/09/14 00:17:45;;;;;;;5.13;1.10;;;15.40;94.50;;;;;;4148317;28;20103;-81
2022/09/14 00:19:46;;;;;;;5.85;1.77;;;15.30;94.50;;;;;;4148603;28;20431;-81
2022/09/14 00:21:55;;;;;;;4.63;1.70;;;15.30;94.60;;;;;;4148387;28;20042;-81
2022/09/14 00:23:56;;;;;;;6.32;1.23;;;15.30;94.80;;;;;;4148570;28;20842;-81
2022/09/14 00:26:04;;;;;;;5.07;1.20;;;15.30;94.80;;;;;;4148602;28;20128;-81
2022/09/14 00:28:05;;;;;;;3.75;0.95;;;15.30;95.00;;;;;;4114617;28;20527;-81
2022/09/14 00:30:06;;;;;;;4.05;1.20;;;15.30;94.80;;;;;;4148486;28;20041;-81
2022/09/14 00:32:07;;;;;;;4.43;1.23;;;15.30;94.90;;;;;;4148644;28;20537;-81
2022/09/14 00:34:12;;;;;;;6.00;1.27;;;15.30;95.10;;;;;;4148144;28;20089;-81
2022/09/14 00:36:16;;;;;;;5.65;1.40;;;15.30;95.10;;;;;;4148152;28;20048;-81
2022/09/14 00:38:17;;;;;;;5.47;1.00;;;15.30;95.20;;;;;;4148354;28;20052;-81
2022/09/14 00:40:18;;;;;;;3.67;1.08;;;15.30;95.30;;;;;;4148041;28;20061;-81
2022/09/14 00:42:18;;;;;;;2.67;0.98;;;15.30;95.30;;;;;;4148045;28;20046;-81
2022/09/14 00:44:19;;;;;;;5.75;1.30;;;15.30;95.30;;;;;;4148070;28;20447;-82
2022/09/14 00:46:20;;;;;;;4.63;1.30;;;15.40;95.30;;;;;;4147827;28;20408;-81
2022/09/14 00:48:24;;;;;;;6.05;0.85;;;15.40;95.40;;;;;;4148273;28;20042;-81
2022/09/14 00:50:25;;;;;;;4.90;1.70;;;15.40;95.40;;;;;;4147298;28;20049;-81
2022/09/14 00:52:32;;;;;;;9.55;1.15;;;15.40;95.40;;;;;;4148106;28;20057;-80
2022/09/14 00:54:53;;;;;;;4.35;1.27;;;15.30;95.50;;;;;;4148118;28;20089;-81
2022/09/14 00:56:57;;;;;;;2.90;1.10;;;15.40;95.50;;;;;;4129997;28;20467;-81
2022/09/14 00:59:04;;;;;;;2.58;0.90;;;15.30;95.50;;;;;;4147832;28;20049;-81
2022/09/14 01:01:06;;;;;;;5.50;0.80;;;15.30;95.60;;;;;;4147922;28;20056;-81
2022/09/14 01:03:07;;;;;;;6.30;1.42;;;15.30;95.90;;;;;;4148203;28;20048;-81
2022/09/14 01:05:09;;;;;;;3.33;1.00;;;15.30;95.60;;;;;;4147755;28;20046;-81
2022/09/14 01:07:38;;;;;;;9.50;1.80;;;15.30;95.70;;;;;;4147964;28;20050;-81
2022/09/14 01:09:39;;;;;;;4.80;1.10;;;15.30;95.90;;;;;;4147474;28;20049;-80
2022/09/14 01:12:02;;;;;;;5.97;0.90;;;15.30;95.90;;;;;;4147903;28;20046;-81
2022/09/14 01:14:14;;;;;;;5.50;1.05;;;15.30;95.80;;;;;;4147902;28;20484;-81
2022/09/14 01:16:32;;;;;;;2.92;0.80;;;15.30;95.90;;;;;;4147751;28;20049;-81
2022/09/14 01:18:46;;;;;;;5.63;0.77;;;15.30;96.00;;;;;;4148012;28;20160;-81
2022/09/14 01:21:13;;;;;;;2.45;1.00;;;15.30;95.80;;;;;;4147675;28;20420;-81
2022/09/14 01:23:35;;;;;;;6.85;1.15;;;15.40;96.20;;;;;;4147913;28;20104;-80
2022/09/14 01:25:59;;;;;;;3.47;0.88;;;15.40;96.10;;;;;;4147927;28;20133;-81
2022/09/14 01:28:04;;;;;;;5.13;1.00;;;15.40;95.90;;;;;;4147613;28;20050;-81
2022/09/14 01:30:05;;;;;;;3.38;0.90;;;15.50;95.90;;;;;;4147806;28;20046;-81
2022/09/14 01:32:21;;;;;;;2.70;0.88;;;15.50;95.90;;;;;;4147347;28;20480;-81
2022/09/14 01:34:31;;;;;;;5.20;1.20;;;15.50;96.10;;;;;;4147741;28;20034;-81
2022/09/14 01:36:35;;;;;;;3.97;0.80;;;15.50;96.00;;;;;;4147685;28;20046;-80
2022/09/14 01:38:47;;;;;;;2.42;0.80;;;15.50;96.00;;;;;;4147947;28;20496;-80
2022/09/14 01:40:49;;;;;;;3.60;1.00;;;15.60;96.20;;;;;;4147910;28;20050;-80
2022/09/14 01:42:56;;;;;;;4.32;0.80;;;15.60;96.10;;;;;;4147871;28;20523;-80
2022/09/14 01:45:01;;;;;;;2.78;1.20;;;15.50;96.20;;;;;;4147216;28;20519;-80
2022/09/14 01:47:30;;;;;;;3.53;1.10;;;15.60;96.30;;;;;;4147731;28;20407;-80
2022/09/14 01:49:40;;;;;;;3.88;1.05;;;15.60;96.60;;;;;;4141844;28;20046;-80
2022/09/14 01:51:46;;;;;;;4.15;0.80;;;15.60;96.40;;;;;;4147596;28;20038;-80
2022/09/14 01:53:54;;;;;;;4.75;0.80;;;15.60;96.30;;;;;;4147181;28;20081;-80
2022/09/14 01:56:05;;;;;;;3.40;0.80;;;15.60;96.40;;;;;;4147723;28;20462;-80
2022/09/14 01:58:27;;;;;;;3.42;1.00;;;15.60;96.40;;;;;;4130089;28;20516;-81
2022/09/14 02:00:29;;;;;;;6.05;1.05;;;15.50;96.40;;;;;;4147720;28;20443;-80
2022/09/14 02:02:52;;;;;;;4.80;0.95;;;15.60;96.40;;;;;;4149308;28;20108;-80
2022/09/14 02:05:15;;;;;;;4.13;0.93;;;15.60;96.40;;;;;;4150773;28;20041;-81
2022/09/14 02:07:17;;;;;;;3.15;0.88;;;15.60;96.40;;;;;;4150679;28;20050;-80
2022/09/14 02:09:25;;;;;;;2.88;0.88;;;15.50;96.20;;;;;;4150610;28;20046;-80
2022/09/14 02:11:26;;;;;;;3.72;0.90;;;15.50;96.30;;;;;;4150526;28;20396;-81
2022/09/14 02:13:27;;;;;;;5.53;0.77;;;15.50;96.40;;;;;;4150061;28;20042;-80
2022/09/14 02:15:28;;;;;;;4.75;0.70;;;15.50;96.40;;;;;;4150535;28;20500;-80
2022/09/14 02:17:30;;;;;;;4.25;1.00;;;15.50;96.40;;;;;;4150056;28;20073;-80
2022/09/14 02:19:37;;;;;;;1.65;0.80;;;15.50;96.30;;;;;;4150350;28;20097;-80
2022/09/14 02:21:39;;;;;;;5.43;1.00;;;15.50;96.40;;;;;;4132750;28;20587;-80
2022/09/14 02:23:40;;;;;;;1.95;1.08;;;15.50;96.40;;;;;;4150303;28;20415;-80
2022/09/14 02:25:40;;;;;;;4.28;0.88;;;15.50;96.40;;;;;;4150291;28;20046;-81
2022/09/14 02:27:41;;;;;;;6.43;1.02;;;15.50;96.40;;;;;;4150220;28;20042;-81
2022/09/14 02:29:42;;;;;;;8.05;1.35;;;15.40;96.50;;;;;;4150269;28;20100;-81
2022/09/14 02:31:51;;;;;;;4.93;1.25;;;15.40;96.50;;;;;;4150075;28;20056;-81
2022/09/14 02:34:29;;;;;;;4.38;0.93;;;15.40;96.50;;;;;;4150178;28;20558;-81
2022/09/14 02:36:48;;;;;;;5.47;1.40;;;15.40;96.70;;;;;;4149955;28;20038;-81
2022/09/14 02:38:55;;;;;;;;;;;15.40;96.60;;;;;;4150357;28;20049;-81
2022/09/14 02:41:08;;;;;;;6.78;1.00;;;15.40;96.90;;;;;;4149915;28;19972;-81
2022/09/14 02:43:42;;;;;;;4.45;1.33;;;15.40;96.40;;;;;;4150009;28;20563;-81
2022/09/14 02:46:12;;;;;;;5.72;1.98;;;15.40;96.40;;;;;;4149782;28;20085;-81
2022/09/14 02:48:20;;;;;;;3.08;0.70;;;15.40;96.50;;;;;;4127881;28;20050;-81
2022/09/14 02:50:27;;;;;;;4.30;1.25;;;15.40;96.20;;;;;;4150108;28;20042;-81
2022/09/14 02:52:36;;;;;;;5.78;0.93;;;15.40;96.30;;;;;;4149959;28;20503;-81
2022/09/14 02:54:52;;;;;;;2.03;0.90;;;15.40;96.40;;;;;;4149617;28;20042;-81
2022/09/14 02:56:52;;;;;;;3.13;0.80;;;15.40;96.50;;;;;;4149968;28;20515;-81
2022/09/14 02:58:53;;;;;;;4.28;0.90;;;15.30;96.40;;;;;;4149859;28;20046;-81
2022/09/14 03:00:54;;;;;;;4.75;0.98;;;15.30;96.40;;;;;;4149607;28;20053;-80
2022/09/14 03:02:54;;;;;;;4.03;1.20;;;15.30;96.50;;;;;;4131712;28;20500;-81
2022/09/14 03:04:55;;;;;;;3.47;0.90;;;15.30;96.50;;;;;;4149386;28;20073;-81
2022/09/14 03:06:56;;;;;;;4.25;0.88;;;15.30;96.50;;;;;;4149806;28;20681;-81
2022/09/14 03:08:57;;;;;;;5.88;1.17;;;15.30;96.60;;;;;;4149431;28;20050;-81
2022/09/14 03:10:58;;;;;;;2.90;0.98;;;15.20;96.70;;;;;;4149751;28;20053;-81
2022/09/14 03:12:59;;;;;;;7.55;1.33;;;15.20;96.80;;;;;;4149533;28;20395;-80
2022/09/14 03:15:00;;;;;;;7.13;1.30;;;15.20;97.00;;;;;;4148910;28;20053;-80
2022/09/14 03:17:00;;;;;;;4.93;1.60;;;15.20;97.10;;;;;;4131897;28;20058;-80
2022/09/14 03:19:05;;;;;;;4.68;1.20;;;15.20;97.00;;;;;;4132022;28;20054;-81
2022/09/14 03:21:08;;;;;;;3.97;1.38;;;15.20;97.20;;;;;;4149315;28;20046;-81
2022/09/14 03:23:10;;;;;;;4.22;1.35;;;15.20;97.20;;;;;;4149255;28;20057;-80
2022/09/14 03:25:10;;;;;;;5.10;1.67;;;15.20;97.40;;;;;;4149517;28;20046;-81
2022/09/14 03:27:12;;;;;;;6.97;1.02;;;15.20;97.40;;;;;;4149386;28;20068;-80
2022/09/14 03:29:12;;;;;;;2.55;1.20;;;15.20;97.50;;;;;;4149349;28;20046;-81
2022/09/14 03:31:13;;;;;;;6.13;1.27;;;15.20;97.50;;;;;;4149154;28;20048;-81
2022/09/14 03:33:14;;;;;;;3.83;1.35;;;15.20;97.60;;;;;;4149286;28;20091;-81
2022/09/14 03:35:16;;;;;;;6.35;1.08;;;15.20;97.60;;;;;;4149013;28;20046;-81
2022/09/14 03:37:16;;;;;;;5.68;1.30;;;15.20;97.70;;;;;;4149257;28;20462;-81
2022/09/14 03:39:17;;;;;;;5.63;1.23;;;15.20;97.80;;;;;;4148984;28;20152;-81
2022/09/14 03:41:19;;;;;;;5.97;1.20;;;15.20;97.80;;;;;;4148399;28;20188;-81
2022/09/14 03:43:20;;;;;;;3.17;1.20;;;15.20;97.90;;;;;;4130741;28;20493;-81
2022/09/14 03:45:21;;;;;;;5.78;1.30;;;15.20;98.00;;;;;;4147705;28;20049;-81
2022/09/14 03:47:22;;;;;;;5.32;1.65;;;15.20;98.10;;;;;;4148053;28;20425;-81
2022/09/14 03:49:23;;;;;;;4.00;1.23;;;15.20;98.10;;;;;;4148204;28;20073;-81
2022/09/14 03:51:23;;;;;;;5.28;1.35;;;15.20;98.10;;;;;;4147651;28;20060;-81
2022/09/14 03:53:24;;;;;;;5.18;1.60;;;15.20;98.20;;;;;;4148599;28;20372;-81
2022/09/14 03:55:25;;;;;;;4.15;1.40;;;15.20;98.60;;;;;;4149029;28;20042;-81
2022/09/14 03:57:26;;;;;;;3.15;1.00;;;15.30;98.30;;;;;;4148717;28;20038;-81
2022/09/14 03:59:27;;;;;;;1.38;0.90;;;15.30;98.40;;;;;;4148924;28;20046;-81
2022/09/14 04:01:27;;;;;;;2.58;0.82;;;15.30;98.40;;;;;;4148863;28;20053;-80
2022/09/14 04:03:29;;;;;;;3.10;1.02;;;15.30;98.40;;;;;;4148837;28;20096;-81
2022/09/14 04:05:30;;;;;;;2.42;1.42;;;15.30;98.40;;;;;;4148804;28;20124;-81
2022/09/14 04:07:31;;;;;;;6.40;1.13;;;15.30;98.40;;;;;;4148787;28;20050;-80
2022/09/14 04:09:32;;;;;;;4.25;1.10;;;15.40;98.50;;;;;;4148792;28;20064;-81
2022/09/14 04:11:33;;;;;;;2.20;0.95;;;15.40;98.60;;;;;;4148517;28;20068;-81
2022/09/14 04:13:34;;;;;;;5.03;1.00;;;15.40;98.60;;;;;;4148258;28;20042;-81
2022/09/14 04:15:35;;;;;;;7.30;1.35;;;15.80;98.80;;;;;;4148634;28;20045;-81
2022/09/14 04:17:36;;;;;;;3.63;0.90;;;15.30;98.70;;;;;;4148261;28;20120;-80
2022/09/14 04:19:40;;;;;;;4.13;1.20;;;15.30;98.70;;;;;;4147778;28;20042;-81
2022/09/14 04:21:41;;;;;;;5.18;1.20;;;15.30;98.90;;;;;;4114969;28;20058;-81
2022/09/14 04:23:41;;;;;;;7.28;0.98;;;15.30;98.90;;;;;;4114922;28;20094;-81
2022/09/14 04:25:42;;;;;;;2.55;0.98;;;15.30;98.90;;;;;;4148202;28;20551;-81
2022/09/14 04:27:43;;;;;;;8.05;2.05;;;15.30;99.00;;;;;;4148615;28;20049;-81
2022/09/14 04:29:44;;;;;;;4.80;1.42;;;15.30;99.00;;;;;;4148468;28;20049;-80
2022/09/14 04:31:45;;;;;;;2.38;1.00;;;15.30;99.00;;;;;;4148262;28;20057;-81
2022/09/14 04:33:48;;;;;;;3.28;1.30;;;15.30;99.00;;;;;;4148345;28;20046;-81
2022/09/14 04:36:03;;;;;;;1.83;0.85;;;15.30;99.10;;;;;;4148268;28;20080;-81
2022/09/14 04:38:04;;;;;;;4.32;1.33;;;15.30;99.10;;;;;;4131667;28;20135;-81
2022/09/14 04:40:05;;;;;;;7.00;1.85;;;15.40;99.10;;;;;;4132248;28;20121;-81
2022/09/14 04:42:06;;;;;;;8.98;1.63;;;15.30;99.20;;;;;;4132115;28;20042;-81
2022/09/14 04:44:07;;;;;;;4.05;1.13;;;15.30;99.30;;;;;;4131918;28;20046;-81
2022/09/14 04:46:11;;;;;;;3.50;1.30;;;15.30;99.30;;;;;;4130707;28;20468;-81
2022/09/14 04:48:12;;;;;;;7.13;1.73;;;15.30;99.50;;;;;;4132060;28;20046;-81
2022/09/14 04:50:13;;;;;;;7.68;1.85;;;15.30;99.50;;;;;;4131812;28;20056;-81
2022/09/14 04:52:14;;;;;;;3.33;1.67;;;15.30;99.50;;;;;;4131772;28;20045;-80
2022/09/14 04:54:16;;;;;;;4.85;1.27;;;15.30;99.50;;;;;;4131972;28;20038;-81
2022/09/14 04:56:19;;;;;;;5.13;1.40;;;15.30;99.50;;;;;;4131863;28;20050;-81
2022/09/14 04:58:19;;;;;;;3.78;0.93;;;15.30;99.60;;;;;;4131711;28;20051;-81
2022/09/14 05:00:20;;;;;;;3.97;1.20;;;15.30;99.60;;;;;;4132172;28;20100;-82
2022/09/14 05:02:22;;;;;;;8.27;1.38;;;15.30;99.70;;;;;;4131528;28;20046;-82
2022/09/14 05:04:23;;;;;;;8.20;1.90;;;15.30;99.70;;;;;;4130711;28;20042;-83
2022/09/14 05:06:29;;;;;;;4.13;1.83;;;15.30;99.80;;;;;;4131805;28;20046;-81
2022/09/14 05:08:30;;;;;;;2.40;1.08;;;15.40;99.80;;;;;;4131578;28;20038;-80
2022/09/14 05:10:31;;;;;;;7.57;1.23;;;15.30;99.90;;;;;;4130580;28;20093;-81
2022/09/14 05:12:32;;;;;;;3.53;1.17;;;15.30;99.90;;;;;;4135986;28;20037;-82
2022/09/14 05:14:32;;;;;;;8.35;4.53;;;15.30;99.90;;;;;;4147627;28;20164;-81
2022/09/14 05:16:37;;;;;;;2.55;1.00;;;15.40;99.90;;;;;;4148454;28;20045;-81
2022/09/14 05:18:38;;;;;;;4.28;0.88;;;15.30;99.90;;;;;;4149594;28;20042;-82
2022/09/14 05:20:39;;;;;;;3.53;1.00;;;15.40;99.90;;;;;;4150595;28;20042;-82
2022/09/14 05:22:39;;;;;;;8.30;1.38;;;15.40;99.90;;;;;;4151084;28;20046;-81
2022/09/14 05:24:40;;;;;;;5.45;1.20;;;15.40;99.90;;;;;;4151600;28;20403;-84
2022/09/14 05:26:43;;;;;;;5.10;1.00;;;15.30;99.90;;;;;;4151077;28;20054;-82
2022/09/14 05:28:53;;;;;;;7.03;1.60;;;15.30;99.90;;;;;;4150054;28;20132;-82
2022/09/14 05:30:54;;;;;;;3.95;1.20;;;15.30;99.90;;;;;;4150470;28;20046;-82
2022/09/14 05:32:54;;;;;;;4.72;1.10;;;15.30;99.90;;;;;;4151643;28;20049;-81
2022/09/14 05:34:55;;;;;;;3.97;1.10;;;15.30;99.90;;;;;;4150395;28;20125;-82
2022/09/14 05:36:56;;;;;;;5.57;1.02;;;15.30;99.90;;;;;;4151902;28;20487;-82
2022/09/14 05:38:56;;;;;;;3.50;1.30;;;15.30;99.90;;;;;;4136376;28;20061;-81
2022/09/14 05:40:57;;;;;;;4.55;1.27;;;15.30;99.90;;;;;;4151556;28;20049;-82
2022/09/14 05:42:58;;;;;;;5.82;1.17;;;15.30;99.90;;;;;;4151110;28;20049;-82
2022/09/14 05:44:58;;;;;;;3.45;0.90;;;15.40;99.90;;;;;;4150519;28;20053;-82
2022/09/14 05:46:59;;;;;;;6.30;1.17;;;15.40;99.90;;;;;;4149859;28;20108;-81
2022/09/14 05:49:00;;;;;;;5.18;1.30;;;15.40;99.90;;;;;;4150365;28;20046;-81
2022/09/14 05:51:03;;;;;;;7.47;1.08;;;15.40;99.90;;;;;;4150061;28;20050;-82
2022/09/14 05:53:04;;;;;;;4.85;1.17;;;15.40;99.90;;;;;;4150370;28;20040;-81
2022/09/14 05:55:05;;;;;;;6.47;1.38;;;15.50;99.90;;;;;;4149962;28;20073;-82
2022/09/14 05:57:06;;;;;;;4.93;1.17;;;15.50;99.90;;;;;;4150078;28;20124;-82
2022/09/14 05:59:07;;;;;;;2.60;0.98;;;15.50;99.90;;;;;;4149763;28;20108;-82
2022/09/14 06:01:09;;;;;;;5.00;1.00;;;15.40;99.90;;;;;;4150222;28;20050;-82
2022/09/14 06:03:09;;;;;;;2.30;0.88;;;15.40;99.90;;;;;;4150109;28;20074;-82
2022/09/14 06:05:10;;;;;;;6.70;1.70;;;15.50;99.90;;;;;;4150145;28;20049;-82
2022/09/14 06:07:11;;;;;;;3.00;0.98;;;15.50;99.90;;;;;;4132415;28;20057;-82
2022/09/14 06:09:11;;;;;;;3.92;0.90;;;15.50;99.90;;;;;;4150329;28;20068;-82
2022/09/14 06:11:15;;;;;;;4.32;0.80;;;15.50;99.90;;;;;;4149792;28;20120;-82
2022/09/14 06:13:16;;;;;;;2.70;1.13;;;15.30;99.90;;;;;;4150036;28;20476;-81
2022/09/14 06:15:17;;;;;;;2.78;0.85;;;15.50;99.90;;;;;;4150012;28;20121;-82
2022/09/14 06:17:17;;;;;;;3.45;0.70;;;15.50;99.90;;;;;;4132368;28;20101;-82
2022/09/14 06:19:18;;;;;;;2.33;0.85;;;15.60;99.90;;;;;;4149484;28;20054;-82
2022/09/14 06:21:21;;;;;;;1.65;0.75;;;15.60;99.90;;;;;;4149693;28;20053;-82
2022/09/14 06:23:22;;;;;;;3.72;0.73;;;15.60;99.90;;;;;;4149775;28;20042;-82
2022/09/14 06:25:22;;;;;;;4.18;1.25;;;15.70;99.90;;;;;;4149672;28;20092;-82
2022/09/14 06:27:23;;;;;;;3.72;0.90;;;15.70;99.80;;;;;;4149843;28;20498;-82
2022/09/14 06:29:24;;;;;;;6.03;0.70;;;15.70;99.80;;;;;;4149352;28;20057;-82
2022/09/14 06:31:24;;;;;;;2.72;0.68;;;15.70;99.80;;;;;;4149821;28;20404;-82
2022/09/14 06:33:26;;;;;;;2.72;0.70;;;15.80;99.80;;;;;;4148867;28;20061;-82
2022/09/14 06:35:26;;;;;;;4.55;0.98;;;15.80;99.70;;;;;;4149749;28;20073;-81
2022/09/14 06:37:27;;;;;;;2.25;0.70;;;15.80;99.70;;;;;;4132381;28;20073;-82
2022/09/14 06:39:27;;;;;;;2.88;0.65;;;15.80;99.60;;;;;;4149482;28;20085;-82
2022/09/14 06:41:31;;;;;;;3.72;1.15;;;15.80;99.60;;;;;;4149599;28;20041;-82
2022/09/14 06:43:38;;;;;;;5.63;0.90;;;15.90;99.60;;;;;;4149026;28;20419;-81
2022/09/14 06:45:38;;;;;;;4.78;0.80;;;15.90;99.60;;;;;;4149219;28;20054;-81
2022/09/14 06:47:39;;;;;;;2.72;0.75;;;15.90;99.50;;;;;;4149298;28;20112;-81
2022/09/14 06:49:40;;;;;;;3.75;0.80;;;15.90;99.40;;;;;;4148273;28;20037;-82
2022/09/14 06:51:43;;;;;;;2.38;0.85;;;15.90;99.30;;;;;;4149319;28;20428;-83
2022/09/14 06:53:45;;;;;;;3.55;0.85;;;16.00;99.40;;;;;;4131836;28;20051;-82
2022/09/14 06:55:46;;;;;;;10.50;0.98;;;16.00;99.40;;;;;;4149219;28;20045;-82
2022/09/14 06:57:48;;;;;;;1.77;0.93;;;16.00;99.40;;;;;;4148867;28;20414;-82
2022/09/14 06:59:48;;;;;;;1.88;0.70;;;16.10;99.30;;;;;;4149375;28;20049;-82
2022/09/14 07:01:49;;;;;;;5.22;0.90;;;16.10;99.30;;;;;;4149199;28;20041;-81
2022/09/14 07:03:51;;;;;;;3.08;0.70;;;16.20;99.20;;;;;;4148556;28;20038;-82
2022/09/14 07:05:52;;;;;;;2.35;0.52;;;16.20;99.20;;;;;;4131103;28;20081;-82
2022/09/14 07:07:53;;;;;;;1.50;0.60;;;16.30;99.10;;;;;;4148127;28;20526;-82
2022/09/14 07:09:53;;;;;;;1.73;0.70;;;16.30;99.00;;;;;;4148608;28;20085;-82
2022/09/14 07:11:54;;;;;;;0.77;0.50;;;16.40;99.00;;;;;;4148578;28;20041;-82
2022/09/14 07:13:58;;;;;;;2.67;0.60;;;16.40;98.90;;;;;;4148476;28;20038;-82
2022/09/14 07:15:59;;;;;;;7.15;1.17;;;16.40;98.90;;;;;;4148344;28;20052;-82
2022/09/14 07:18:00;;;;;;;9.23;0.90;;;16.50;98.90;;;;;;4148252;28;20433;-82
2022/09/14 07:20:02;;;;;;;10.40;1.02;;;16.50;98.90;;;;;;4148489;28;20053;-81
2022/09/14 07:22:03;;;;;;;3.83;0.90;;;16.60;99.00;;;;;;4147809;28;20095;-81
2022/09/14 07:24:04;;;;;;;4.78;0.85;;;16.60;98.80;;;;;;4147960;28;20452;-82
2022/09/14 07:26:16;;;;;;;3.92;0.88;;;16.70;98.90;;;;;;4131103;28;20050;-82
2022/09/14 07:28:17;;;;;;;6.15;0.82;;;16.70;98.90;;;;;;4131512;28;20052;-82
2022/09/14 07:30:18;;;;;;;1.35;0.57;;;16.80;98.90;;;;;;4148754;28;20073;-82
2022/09/14 07:32:18;;;;;;;3.65;0.80;;;16.80;98.80;;;;;;4148626;28;20046;-82
2022/09/14 07:34:23;;;;;;;6.07;1.20;;;17.00;98.80;;;;;;4148075;28;20487;-82
2022/09/14 07:36:26;;;;;;;6.63;1.55;;;17.00;98.90;;;;;;4148794;28;20034;-82
2022/09/14 07:38:26;;;;;;;3.03;1.00;;;17.10;98.90;;;;;;4148735;28;20403;-82
2022/09/14 07:40:27;;;;;;;5.85;1.08;;;17.10;98.70;;;;;;4131519;28;20046;-82
2022/09/14 07:42:28;;;;;;;4.25;0.70;;;17.20;98.70;;;;;;4148658;28;20045;-82
2022/09/14 07:44:28;;;;;;;5.75;1.02;;;17.20;98.60;;;;;;4148063;28;20049;-82
2022/09/14 07:46:32;;;;;;;5.13;1.58;;;17.30;98.70;;;;;;4148631;28;20049;-82
2022/09/14 07:48:34;;;;;;;2.47;0.93;;;17.30;98.60;;;;;;4148361;28;20038;-82
2022/09/14 07:50:34;;;;;;;6.78;1.33;;;17.30;98.50;;;;;;4148672;28;20096;-81
2022/09/14 07:52:35;;;;;;;5.00;0.80;;;17.40;98.60;;;;;;4148495;28;20507;-82
2022/09/14 07:54:36;;;;;;;7.07;0.82;;;17.40;98.50;;;;;;4147884;28;20038;-82
2022/09/14 07:56:37;;;;;;;4.82;1.08;;;17.50;98.60;;;;;;4130894;28;20174;-83
2022/09/14 07:58:39;;;;;;;5.97;0.80;;;17.50;98.40;;;;;;4148456;28;20073;-82
2022/09/14 08:00:39;;;;;;;3.55;0.70;;;17.60;98.40;;;;;;4148164;28;20549;-82
2022/09/14 08:02:40;;;;;;;2.60;0.77;;;17.60;98.30;;;;;;4148517;28;20045;-83
2022/09/14 08:04:42;;;;;;;3.15;0.80;;;17.70;98.20;;;;;;4148563;28;20125;-82
2022/09/14 08:06:43;;;;;;;10.75;1.30;;;17.70;98.20;;;;;;4130917;28;20065;-82
2022/09/14 08:08:46;;;;;;;6.05;0.85;;;18.00;98.00;;;;;;4130904;28;20050;-82
2022/09/14 08:10:47;;;;;;;4.15;1.17;;;18.40;97.50;;;;;;4148369;28;20104;-82
2022/09/14 08:12:52;;;;;;;2.20;0.70;;;18.90;97.10;;;;;;4148069;28;20075;-82
2022/09/14 08:14:53;;;;;;;3.28;0.70;;;19.10;96.40;;;;;;4147770;28;20052;-82
2022/09/14 08:16:54;;;;;;;7.88;1.25;;;19.50;96.10;;;;;;4148047;28;20049;-82
2022/09/14 08:19:02;;;;;;;6.03;0.73;;;19.80;95.50;;;;;;4130534;28;20456;-82
2022/09/14 08:21:05;;;;;;;5.80;0.68;;;19.80;95.20;;;;;;4148196;28;20042;-82
2022/09/14 08:23:07;;;;;;;4.85;0.70;;;19.90;95.10;;;;;;4129949;28;20054;-82
2022/09/14 08:25:08;;;;;;;3.60;0.50;;;19.90;94.80;;;;;;4147976;28;20518;-82
2022/09/14 08:27:10;;;;;;;4.22;1.48;;;19.70;94.60;;;;;;4130591;28;20122;-82
2022/09/14 08:29:12;;;;;;;3.28;0.70;;;19.80;94.50;;;;;;4147960;28;20046;-82
2022/09/14 08:31:21;;;;;;;3.60;0.77;;;19.90;94.30;;;;;;4148018;28;20057;-82
2022/09/14 08:33:22;;;;;;;2.42;0.80;;;19.80;94.00;;;;;;4147167;28;20415;-82
2022/09/14 08:35:22;;;;;;;5.72;0.80;;;19.70;94.00;;;;;;4147552;28;20054;-82
2022/09/14 08:37:23;;;;;;;7.05;0.90;;;20.10;94.00;;;;;;4147814;28;20428;-82
2022/09/14 08:39:24;;;;;;;2.90;0.70;;;20.40;93.60;;;;;;4147857;28;20046;-82
2022/09/14 08:41:47;;;;;;;7.40;0.80;;;20.80;93.10;;;;;;4147822;28;20038;-82
2022/09/14 08:43:47;;;;;;;3.03;1.02;;;21.40;91.90;;;;;;4147836;28;20045;-82
2022/09/14 08:45:52;;;;;;;4.18;0.68;;;22.50;91.30;;;;;;4147702;28;20094;-82
2022/09/14 08:47:53;;;;;;;3.97;0.80;;;23.40;89.80;;;;;;4146828;28;20052;-82
2022/09/14 08:50:11;;;;;;;13.50;0.90;;;24.00;87.50;;;;;;4147641;28;20046;-82
2022/09/14 08:52:53;;;;;;;4.20;1.10;;;23.90;84.00;;;;;;4147729;28;20076;-82
2022/09/14 08:54:57;;;;;;;4.47;1.20;;;23.50;84.00;;;;;;4147613;28;20081;-82
2022/09/14 08:57:12;;;;;;;3.00;0.55;;;23.50;85.30;;;;;;4147333;28;20081;-82
2022/09/14 08:59:38;;;;;;;5.13;0.70;;;23.30;83.50;;;;;;4147152;28;20121;-82
2022/09/14 09:02:06;;;;;;;2.72;0.45;;;23.60;83.80;;;;;;4147362;28;20124;-82
2022/09/14 09:04:44;;;;;;;5.05;0.57;;;24.40;83.40;;;;;;4136468;28;20554;-82
2022/09/14 09:07:01;;;;;;;4.25;0.70;;;25.00;80.20;;;;;;4147614;28;20050;-82
2022/09/14 09:09:22;;;;;;;3.88;1.52;;;24.50;79.70;;;;;;4147479;28;20065;-82
2022/09/14 09:11:27;;;;;;;2.60;0.40;;;24.00;80.70;;;;;;4146299;28;20042;-82
2022/09/14 09:13:35;;;;;;;3.13;0.50;;;23.50;80.90;;;;;;4147446;28;20081;-82
2022/09/14 09:15:48;;;;;;;5.32;0.95;;;23.10;80.70;;;;;;4147249;28;20053;-83
2022/09/14 09:17:55;;;;;;;3.88;0.55;;;22.70;79.40;;;;;;4147394;28;20420;-82
2022/09/14 09:20:05;;;;;;;2.75;0.60;;;22.20;81.60;;;;;;4147413;28;20560;-82
2022/09/14 09:22:15;;;;;;;4.65;0.50;;;21.90;82.40;;;;;;4129829;28;20517;-82
2022/09/14 09:24:24;;;;;;;;;;;21.70;82.90;;;;;;4147983;28;20121;-82
2022/09/14 09:26:28;;;;;;;2.15;0.40;;;21.50;80.60;;;;;;4146899;28;20401;-82
2022/09/14 09:28:30;;;;;;;6.03;0.68;;;21.40;84.60;;;;;;4147407;28;20446;-82
2022/09/14 09:30:31;;;;;;;3.17;0.60;;;21.20;84.40;;;;;;4147421;28;20041;-82
2022/09/14 09:32:34;;;;;;;6.38;0.98;;;21.10;84.80;;;;;;4147055;28;20125;-82
2022/09/14 09:34:35;;;;;;;3.10;0.70;;;21.00;84.90;;;;;;4147344;28;20400;-82
2022/09/14 09:36:40;;;;;;;5.88;0.73;;;20.90;84.90;;;;;;4129982;28;20089;-83
2022/09/14 09:38:41;;;;;;;6.57;0.85;;;20.90;85.40;;;;;;4147309;28;20081;-82
2022/09/14 09:40:52;;;;;;;8.25;0.70;;;20.80;85.00;;;;;;4146730;28;20042;-81
2022/09/14 09:43:12;;;;;;;4.75;0.60;;;20.70;84.80;;;;;;4147246;28;20124;-83
2022/09/14 09:45:13;;;;;;;2.00;0.63;;;20.60;84.60;;;;;;4146921;28;20069;-83
2022/09/14 09:47:14;;;;;;;5.35;0.60;;;20.60;85.30;;;;;;4129087;28;20182;-82
2022/09/14 09:49:17;;;;;;;3.35;0.50;;;20.60;85.50;;;;;;4147248;28;20147;-82
2022/09/14 09:51:23;;;;;;;6.25;0.45;;;20.60;85.60;;;;;;4147088;28;20492;-82
2022/09/14 09:53:24;;;;;;;6.43;0.80;;;20.70;85.20;;;;;;4147088;28;20048;-81
2022/09/14 09:55:34;;;;;;;4.53;0.82;;;20.80;84.50;;;;;;4147132;28;20044;-82
2022/09/14 09:57:36;;;;;;;4.18;0.60;;;20.80;84.10;;;;;;4146666;28;20443;-82
2022/09/14 09:59:41;;;;;;;4.25;0.60;;;21.00;84.10;;;;;;4146870;28;20092;-81
2022/09/14 10:01:42;;;;;;;5.70;0.63;;;21.10;83.50;;;;;;4147059;28;20054;-81
2022/09/14 10:03:50;;;;;;;4.88;0.50;;;21.20;82.90;;;;;;4147116;28;20082;-82
2022/09/14 10:06:01;;;;;;;3.73;0.60;;;21.40;82.50;;;;;;4146535;28;20045;-82
2022/09/14 10:08:05;;;;;;;2.80;0.90;;;21.60;82.00;;;;;;4147026;28;20100;-82
2022/09/14 10:10:12;;;;;;;4.60;0.65;;;21.70;81.90;;;;;;4147113;28;20046;-82
2022/09/14 10:12:15;;;;;;;4.47;0.70;;;21.90;81.00;;;;;;4146907;28;20204;-82
2022/09/14 10:14:36;;;;;;;2.83;1.10;;;22.00;81.20;;;;;;4146971;28;20054;-82
2022/09/14 10:16:41;;;;;;;4.22;0.40;;;22.30;80.00;;;;;;4129258;28;20106;-82
2022/09/14 10:18:45;;;;;;;4.63;0.50;;;22.50;80.00;;;;;;4146978;28;20407;-82
2022/09/14 10:20:51;;;;;;;2.47;0.55;;;22.60;78.90;;;;;;4146554;28;20546;-83
2022/09/14 10:22:52;;;;;;;6.40;0.80;;;22.60;77.30;;;;;;4147461;28;20050;-82
2022/09/14 10:25:15;;;;;;;4.13;1.15;;;22.50;77.70;;;;;;4132184;28;20140;-82
2022/09/14 10:27:51;;;;;;;3.65;0.70;;;22.50;77.50;;;;;;4135875;28;20527;-82
2022/09/14 10:29:54;;;;;;;3.80;1.15;;;22.50;75.00;;;;;;4107330;28;20089;-82
2022/09/14 10:32:03;;;;;;;6.05;0.60;;;22.50;77.40;;;;;;4132286;28;20046;-82
2022/09/14 10:34:13;;;;;;;1.63;0.38;;;22.50;77.50;;;;;;4148896;28;20108;-82
2022/09/14 10:36:40;;;;;;;8.50;1.85;;;22.70;77.30;;;;;;4149665;28;20042;-82
2022/09/14 10:38:57;;;;;;;4.28;0.60;;;22.80;77.90;;;;;;4149506;28;20515;-82
2022/09/14 10:41:25;;;;;;;6.65;0.85;;;22.90;75.70;;;;;;4149076;28;20054;-82
2022/09/14 10:43:47;;;;;;;3.90;0.68;;;23.00;74.50;;;;;;4149275;28;20045;-82
2022/09/14 10:45:57;;;;;;;3.55;0.47;;;23.10;74.50;;;;;;4149178;28;20062;-82
2022/09/14 10:48:31;;;;;;;2.40;0.55;;;23.20;74.40;;;;;;4149359;28;20420;-82
2022/09/14 10:51:10;;;;;;;5.05;0.70;;;23.20;74.60;;;;;;4149306;28;20509;-83
2022/09/14 10:53:35;;;;;;;6.68;0.88;;;23.10;75.10;;;;;;4067473;29;20059;-82